createdAt,value
2018-02-27T00:00:40.471Z,-4.51
2018-02-27T00:03:07.897Z,-4.54
2018-02-27T00:05:35.360Z,-4.43
2018-02-27T00:08:02.818Z,-4.47
2018-02-27T00:10:30.290Z,-4.51
2018-02-27T00:12:57.751Z,-4.44
2018-02-27T00:15:25.288Z,-4.51
2018-02-27T00:17:52.746Z,-4.59
2018-02-27T00:20:20.223Z,-4.66
2018-02-27T00:22:47.679Z,-4.74
2018-02-27T00:25:15.122Z,-4.62
2018-02-27T00:27:42.562Z,-4.57
2018-02-27T00:30:10.051Z,-4.55
2018-02-27T00:32:37.487Z,-4.66
2018-02-27T00:35:04.957Z,-4.68
2018-02-27T00:37:32.389Z,-4.73
2018-02-27T00:39:59.911Z,-4.68
2018-02-27T00:42:27.325Z,-4.71
2018-02-27T00:44:54.746Z,-4.79
2018-02-27T00:47:22.191Z,-4.74
2018-02-27T00:49:49.631Z,-4.77
2018-02-27T00:52:17.092Z,-4.75
2018-02-27T00:54:44.514Z,-4.71
2018-02-27T00:57:11.976Z,-4.73
2018-02-27T00:59:39.560Z,-4.82
2018-02-27T01:02:07.023Z,-4.83
2018-02-27T01:04:34.468Z,-4.95
2018-02-27T01:07:01.919Z,-4.93
2018-02-27T01:09:29.401Z,-4.91
2018-02-27T01:11:56.870Z,-4.96
2018-02-27T01:14:24.334Z,-4.90
2018-02-27T01:16:51.851Z,-5.00
2018-02-27T01:19:19.303Z,-4.90
2018-02-27T01:21:46.754Z,-5.00
2018-02-27T01:24:14.194Z,-5.07
2018-02-27T01:26:41.625Z,-5.11
2018-02-27T01:29:09.262Z,-5.03
2018-02-27T01:31:36.691Z,-5.07
2018-02-27T01:34:04.156Z,-4.98
2018-02-27T01:36:31.593Z,-5.04
2018-02-27T01:38:59.050Z,-5.02
2018-02-27T01:41:26.488Z,-5.04
2018-02-27T01:43:53.952Z,-5.08
2018-02-27T01:46:21.389Z,-4.96
2018-02-27T01:48:48.807Z,-5.02
2018-02-27T01:51:16.268Z,-5.06
2018-02-27T01:53:43.689Z,-5.22
2018-02-27T01:56:11.156Z,-5.08
2018-02-27T01:58:38.582Z,-5.16
2018-02-27T02:01:06.045Z,-5.27
2018-02-27T02:03:33.484Z,-5.36
2018-02-27T02:06:00.979Z,-5.32
2018-02-27T02:08:28.400Z,-5.36
2018-02-27T02:10:55.833Z,-5.48
2018-02-27T02:13:23.286Z,-5.43
2018-02-27T02:15:50.715Z,-5.42
2018-02-27T02:18:18.172Z,-5.60
2018-02-27T02:20:45.601Z,-5.54
2018-02-27T02:23:13.142Z,-5.41
2018-02-27T02:25:40.672Z,-5.41
2018-02-27T02:28:08.133Z,-5.61
2018-02-27T02:30:35.590Z,-5.49
2018-02-27T02:33:03.087Z,-5.53
2018-02-27T02:35:30.570Z,-5.46
2018-02-27T02:38:00.157Z,-5.51
2018-02-27T02:40:27.582Z,-5.58
2018-02-27T02:42:55.056Z,-5.78
2018-02-27T02:45:22.504Z,-5.66
2018-02-27T02:47:49.950Z,-5.62
2018-02-27T02:50:17.374Z,-5.56
2018-02-27T02:52:44.848Z,-5.52
2018-02-27T02:55:12.323Z,-5.51
2018-02-27T02:57:39.796Z,-5.33
2018-02-27T03:00:07.246Z,-5.34
2018-02-27T03:02:34.677Z,-5.28
2018-02-27T03:05:02.137Z,-5.29
2018-02-27T03:07:29.567Z,-5.28
2018-02-27T03:09:57.035Z,-5.32
2018-02-27T03:12:28.375Z,-5.23
2018-02-27T03:14:55.790Z,-5.32
2018-02-27T03:17:23.255Z,-5.23
2018-02-27T03:19:50.692Z,-5.15
2018-02-27T03:22:18.198Z,-5.35
2018-02-27T03:24:45.641Z,-5.28
2018-02-27T03:27:13.108Z,-5.31
2018-02-27T03:29:40.582Z,-5.29
2018-02-27T03:32:08.039Z,-5.24
2018-02-27T03:34:35.461Z,-5.30
2018-02-27T03:37:03.311Z,-5.22
2018-02-27T03:39:30.745Z,-5.15
2018-02-27T03:41:58.211Z,-5.08
2018-02-27T03:44:25.635Z,-5.12
2018-02-27T03:46:53.101Z,-5.03
2018-02-27T03:49:20.527Z,-5.07
2018-02-27T03:51:48.067Z,-5.06
2018-02-27T03:54:15.511Z,-5.12
2018-02-27T03:56:42.961Z,-5.15
2018-02-27T03:59:10.423Z,-5.50
2018-02-27T04:01:37.900Z,-5.42
2018-02-27T04:04:05.440Z,-5.22
2018-02-27T04:06:32.881Z,-5.14
2018-02-27T04:09:00.350Z,-5.35
2018-02-27T04:11:27.783Z,-5.29
2018-02-27T04:13:55.236Z,-5.36
2018-02-27T04:16:22.693Z,-5.28
2018-02-27T04:18:50.120Z,-5.40
2018-02-27T04:21:17.564Z,-5.46
2018-02-27T04:23:45.013Z,-5.51
2018-02-27T04:26:12.462Z,-5.51
2018-02-27T04:28:39.893Z,-5.62
2018-02-27T04:31:07.344Z,-5.61
2018-02-27T04:33:34.842Z,-5.60
2018-02-27T04:36:02.266Z,-5.50
2018-02-27T04:38:29.719Z,-5.50
2018-02-27T04:40:57.185Z,-5.75
2018-02-27T04:43:24.622Z,-5.80
2018-02-27T04:45:52.158Z,-5.72
2018-02-27T04:48:19.610Z,-5.79
2018-02-27T04:50:47.113Z,-5.82
2018-02-27T04:53:14.550Z,-5.74
2018-02-27T04:55:42.015Z,-5.85
2018-02-27T04:58:09.480Z,-5.91
2018-02-27T05:00:36.950Z,-5.87
2018-02-27T05:03:04.407Z,-6.02
2018-02-27T05:05:31.853Z,-6.05
2018-02-27T05:07:59.324Z,-6.04
2018-02-27T05:10:26.875Z,-6.01
2018-02-27T05:12:54.319Z,-6.02
2018-02-27T05:15:21.781Z,-5.94
2018-02-27T05:17:49.261Z,-5.80
2018-02-27T05:20:17.623Z,-5.87
2018-02-27T05:22:45.212Z,-5.79
2018-02-27T05:25:12.741Z,-5.92
2018-02-27T05:27:40.174Z,-5.96
2018-02-27T05:30:07.678Z,-5.93
2018-02-27T05:32:35.664Z,-5.88
2018-02-27T05:35:03.093Z,-5.89
2018-02-27T05:37:30.564Z,-5.88
2018-02-27T05:39:58.003Z,-5.83
2018-02-27T05:42:25.444Z,-5.97
2018-02-27T05:44:52.917Z,-6.04
2018-02-27T05:47:20.378Z,-5.97
2018-02-27T05:49:47.840Z,-5.92
2018-02-27T05:52:15.317Z,-5.82
2018-02-27T05:54:42.739Z,-5.78
2018-02-27T05:57:10.244Z,-5.84
2018-02-27T05:59:37.696Z,-5.81
2018-02-27T06:02:05.346Z,-5.97
2018-02-27T06:04:32.978Z,-6.07
2018-02-27T06:07:00.543Z,-6.05
2018-02-27T06:09:28.225Z,-6.18
2018-02-27T06:11:55.691Z,-6.18
2018-02-27T06:14:23.172Z,-6.19
2018-02-27T06:16:50.653Z,-6.26
2018-02-27T06:19:18.069Z,-6.12
2018-02-27T06:21:46.151Z,-6.06
2018-02-27T06:24:13.607Z,-5.95
2018-02-27T06:26:41.088Z,-5.89
2018-02-27T06:29:08.512Z,-5.90
2018-02-27T06:31:35.978Z,-5.87
2018-02-27T06:34:03.928Z,-5.86
2018-02-27T06:36:31.374Z,-5.80
2018-02-27T06:38:58.846Z,-5.83
2018-02-27T06:41:26.283Z,-6.01
2018-02-27T06:43:53.761Z,-6.09
2018-02-27T06:46:21.381Z,-6.21
2018-02-27T06:48:48.843Z,-6.14
2018-02-27T06:51:16.317Z,-6.12
2018-02-27T06:53:43.794Z,-6.02
2018-02-27T06:56:11.250Z,-6.03
2018-02-27T06:58:38.683Z,-6.11
2018-02-27T07:01:06.157Z,-5.99
2018-02-27T07:03:33.626Z,-5.99
2018-02-27T07:06:01.130Z,-5.88
2018-02-27T07:08:28.601Z,-5.80
2018-02-27T07:10:56.066Z,-5.51
2018-02-27T07:13:23.506Z,-5.06
2018-02-27T07:15:50.970Z,-4.71
2018-02-27T07:18:18.436Z,-4.58
2018-02-27T07:20:45.882Z,-4.57
2018-02-27T07:23:13.381Z,-4.52
2018-02-27T07:25:40.903Z,-4.48
2018-02-27T07:28:08.373Z,-4.35
2018-02-27T07:30:35.806Z,-4.35
2018-02-27T07:33:03.310Z,-4.27
2018-02-27T07:35:30.764Z,-4.27
2018-02-27T07:37:58.217Z,-4.16
2018-02-27T07:40:25.714Z,-4.09
2018-02-27T07:42:53.159Z,-3.82
2018-02-27T07:45:20.592Z,-3.37
2018-02-27T07:47:48.078Z,-3.03
2018-02-27T07:50:15.679Z,-3.10
2018-02-27T07:52:43.124Z,-2.98
2018-02-27T07:55:10.573Z,-3.03
2018-02-27T07:57:38.013Z,-3.60
2018-02-27T08:00:05.440Z,-3.81
2018-02-27T08:02:32.900Z,-3.72
2018-02-27T08:05:00.363Z,-3.70
2018-02-27T08:07:27.835Z,-3.70
2018-02-27T08:09:55.301Z,-3.27
2018-02-27T08:12:23.367Z,-2.76
2018-02-27T08:14:50.802Z,-2.82
2018-02-27T08:17:18.265Z,-2.80
2018-02-27T08:19:45.781Z,-2.55
2018-02-27T08:22:13.229Z,-2.39
2018-02-27T08:24:40.731Z,-2.38
2018-02-27T08:27:08.187Z,-2.48
2018-02-27T08:29:36.252Z,-1.91
2018-02-27T08:32:03.734Z,-1.53
2018-02-27T08:34:31.255Z,-1.71
2018-02-27T08:36:58.700Z,-1.92
2018-02-27T08:39:26.150Z,-1.87
2018-02-27T08:41:53.610Z,-2.36
2018-02-27T08:44:21.047Z,-2.08
2018-02-27T08:46:48.504Z,-2.27
2018-02-27T08:49:15.954Z,-2.02
2018-02-27T08:51:43.454Z,-1.54
2018-02-27T08:54:11.015Z,-1.37
2018-02-27T08:56:38.600Z,-1.23
2018-02-27T08:59:06.144Z,-1.44
2018-02-27T09:01:33.574Z,-0.85
2018-02-27T09:04:01.037Z,-0.71
2018-02-27T09:06:28.475Z,-0.24
2018-02-27T09:08:55.937Z,-0.54
2018-02-27T09:11:23.389Z,-0.82
2018-02-27T09:13:50.901Z,-0.97
2018-02-27T09:16:18.374Z,-0.83
2018-02-27T09:18:45.807Z,-0.87
2018-02-27T09:21:13.315Z,-1.60
2018-02-27T09:23:40.748Z,-1.81
2018-02-27T09:26:08.358Z,-2.29
2018-02-27T09:28:35.791Z,-2.67
2018-02-27T09:31:03.220Z,-2.66
2018-02-27T09:33:30.716Z,-2.61
2018-02-27T09:35:58.140Z,-2.87
2018-02-27T09:38:25.649Z,-2.84
2018-02-27T09:40:53.042Z,-2.87
2018-02-27T09:43:20.505Z,-2.76
2018-02-27T09:45:48.083Z,-2.46
2018-02-27T09:48:15.544Z,-1.93
2018-02-27T09:50:42.997Z,-1.62
2018-02-27T09:53:10.427Z,-0.91
2018-02-27T09:55:37.969Z,-0.15
2018-02-27T09:58:05.412Z,0.35
2018-02-27T10:00:32.897Z,1.02
2018-02-27T10:03:00.347Z,1.90
2018-02-27T10:05:27.832Z,1.83
2018-02-27T10:07:55.269Z,1.05
2018-02-27T10:10:22.696Z,0.74
2018-02-27T10:12:50.158Z,0.80
2018-02-27T10:15:17.584Z,1.06
2018-02-27T10:17:45.060Z,1.64
2018-02-27T10:20:12.490Z,2.26
2018-02-27T10:22:40.013Z,1.43
2018-02-27T10:25:07.440Z,0.81
2018-02-27T10:27:34.955Z,0.91
2018-02-27T10:30:02.376Z,0.66
2018-02-27T10:32:29.800Z,0.63
2018-02-27T10:34:57.289Z,0.35
2018-02-27T10:37:24.734Z,0.38
2018-02-27T10:39:52.232Z,0.24
2018-02-27T10:42:19.696Z,0.08
2018-02-27T10:44:47.166Z,0.75
2018-02-27T10:47:14.602Z,1.75
2018-02-27T10:49:42.064Z,1.27
2018-02-27T10:52:09.527Z,0.88
2018-02-27T10:54:36.992Z,0.41
2018-02-27T10:57:04.419Z,0.24
2018-02-27T10:59:31.888Z,-0.08
2018-02-27T11:02:14.232Z,-0.78
2018-02-27T11:04:41.666Z,-0.83
2018-02-27T11:07:09.135Z,-0.85
2018-02-27T11:09:36.574Z,-0.91
2018-02-27T11:12:04.124Z,-0.67
2018-02-27T11:14:31.606Z,-0.75
2018-02-27T11:16:59.093Z,-0.81
2018-02-27T11:19:26.556Z,-1.01
2018-02-27T11:21:53.993Z,-0.82
2018-02-27T11:24:21.503Z,-1.02
2018-02-27T11:26:48.955Z,-1.00
2018-02-27T11:29:16.410Z,-1.02
2018-02-27T11:31:43.891Z,-0.92
2018-02-27T11:34:11.395Z,-1.34
2018-02-27T11:36:38.904Z,-1.44
2018-02-27T11:39:06.334Z,-1.43
2018-02-27T11:41:33.978Z,-1.38
2018-02-27T11:44:01.501Z,-1.61
2018-02-27T11:46:28.973Z,-1.38
2018-02-27T11:48:56.474Z,-0.38
2018-02-27T11:51:23.912Z,0.55
2018-02-27T11:53:51.365Z,1.03
2018-02-27T11:56:18.840Z,1.25
2018-02-27T11:58:46.259Z,0.87
2018-02-27T12:01:13.881Z,0.56
2018-02-27T12:03:41.355Z,0.97
2018-02-27T12:06:08.898Z,0.82
2018-02-27T12:08:36.659Z,0.73
2018-02-27T12:11:04.131Z,0.53
2018-02-27T12:13:31.665Z,0.30
2018-02-27T12:15:59.089Z,-0.02
2018-02-27T12:18:26.613Z,-0.02
2018-02-27T12:20:54.081Z,0.21
2018-02-27T12:23:21.550Z,0.96
2018-02-27T12:25:49.012Z,1.57
2018-02-27T12:28:16.471Z,2.23
2018-02-27T12:30:43.928Z,1.92
2018-02-27T12:33:11.405Z,1.63
2018-02-27T12:35:38.836Z,1.37
2018-02-27T12:38:06.321Z,0.71
2018-02-27T12:40:33.810Z,0.78
2018-02-27T12:43:01.247Z,0.92
2018-02-27T12:45:28.713Z,0.93
2018-02-27T12:47:56.166Z,2.33
2018-02-27T12:50:23.664Z,3.48
2018-02-27T12:52:51.121Z,4.78
2018-02-27T12:55:18.584Z,5.94
2018-02-27T12:57:46.019Z,6.36
2018-02-27T13:00:13.487Z,5.63
2018-02-27T13:02:40.924Z,4.91
2018-02-27T13:05:08.412Z,3.53
2018-02-27T13:07:35.853Z,3.10
2018-02-27T13:10:03.339Z,2.65
2018-02-27T13:12:30.777Z,2.51
2018-02-27T13:14:58.253Z,2.36
2018-02-27T13:17:25.720Z,2.00
2018-02-27T13:19:53.188Z,2.06
2018-02-27T13:22:20.668Z,1.72
2018-02-27T13:24:48.098Z,1.93
2018-02-27T13:27:15.560Z,1.92
2018-02-27T13:29:43.048Z,1.87
2018-02-27T13:32:10.505Z,1.57
2018-02-27T13:34:37.941Z,1.49
2018-02-27T13:39:39.431Z,1.43
2018-02-27T13:42:06.895Z,1.34
2018-02-27T13:44:34.374Z,1.74
2018-02-27T13:47:01.814Z,1.89
2018-02-27T13:49:29.305Z,1.81
2018-02-27T13:51:56.774Z,1.57
2018-02-27T13:54:24.247Z,1.55
2018-02-27T13:56:51.700Z,1.53
2018-02-27T13:59:19.286Z,0.99
2018-02-27T14:01:46.718Z,0.99
2018-02-27T14:04:14.160Z,1.48
2018-02-27T14:06:41.636Z,1.55
2018-02-27T14:09:09.066Z,1.36
2018-02-27T14:11:36.529Z,0.82
2018-02-27T14:14:03.973Z,-0.13
2018-02-27T14:16:31.426Z,0.11
2018-02-27T14:18:58.893Z,0.09
2018-02-27T14:21:26.381Z,-0.45
2018-02-27T14:23:53.830Z,-0.19
2018-02-27T14:26:21.290Z,-0.39
2018-02-27T14:28:48.738Z,-0.05
2018-02-27T14:31:16.798Z,0.27
2018-02-27T14:33:44.297Z,0.75
2018-02-27T14:36:11.846Z,1.02
2018-02-27T14:38:39.419Z,1.08
2018-02-27T14:41:06.852Z,1.00
2018-02-27T14:43:34.382Z,1.00
2018-02-27T14:46:01.836Z,0.43
2018-02-27T14:48:29.275Z,0.18
2018-02-27T14:50:56.737Z,0.06
2018-02-27T14:53:24.165Z,-0.09
2018-02-27T14:55:51.687Z,-0.41
2018-02-27T14:58:19.244Z,-0.27
2018-02-27T15:00:46.766Z,-0.46
2018-02-27T15:03:14.196Z,-0.73
2018-02-27T15:05:41.666Z,-0.78
2018-02-27T15:08:09.165Z,-0.97
2018-02-27T15:10:36.613Z,-1.39
2018-02-27T15:13:04.080Z,-1.21
2018-02-27T15:15:31.573Z,-1.33
2018-02-27T15:17:59.078Z,-1.37
2018-02-27T15:20:26.642Z,-1.37
2018-02-27T15:22:54.152Z,-1.15
2018-02-27T15:25:21.649Z,-1.13
2018-02-27T15:27:49.101Z,-1.24
2018-02-27T15:30:16.571Z,-1.40
2018-02-27T15:32:43.994Z,-1.39
2018-02-27T15:35:11.466Z,-1.33
2018-02-27T15:37:38.945Z,-1.38
2018-02-27T15:40:06.438Z,-1.39
2018-02-27T15:42:33.904Z,-1.35
2018-02-27T15:45:01.340Z,-1.20
2018-02-27T15:47:28.867Z,-1.39
2018-02-27T15:49:56.426Z,-1.36
2018-02-27T15:52:23.869Z,-1.39
2018-02-27T15:54:51.367Z,-1.43
2018-02-27T15:57:18.782Z,-1.38
2018-02-27T15:59:46.261Z,-1.30
2018-02-27T16:02:13.764Z,-1.42
2018-02-27T16:04:41.234Z,-1.47
2018-02-27T16:07:08.665Z,-1.84
2018-02-27T16:09:36.124Z,-1.75
2018-02-27T16:12:03.572Z,-1.67
2018-02-27T16:14:31.047Z,-1.77
2018-02-27T16:16:58.488Z,-2.02
2018-02-27T16:19:25.978Z,-1.85
2018-02-27T16:21:53.600Z,-2.07
2018-02-27T16:24:21.161Z,-2.03
2018-02-27T16:26:48.640Z,-2.08
2018-02-27T16:29:16.128Z,-2.21
2018-02-27T16:31:43.599Z,-2.31
2018-02-27T16:34:11.124Z,-2.20
2018-02-27T16:36:39.182Z,-2.44
2018-02-27T16:39:06.646Z,-2.59
2018-02-27T16:41:34.209Z,-2.49
2018-02-27T16:44:01.704Z,-2.48
2018-02-27T16:46:29.374Z,-2.50
2018-02-27T16:48:56.954Z,-2.74
2018-02-27T16:51:24.704Z,-2.81
2018-02-27T16:53:52.160Z,-2.78
2018-02-27T16:56:19.907Z,-2.68
2018-02-27T16:58:47.426Z,-2.66
2018-02-27T17:01:14.906Z,-2.82
2018-02-27T17:03:42.394Z,-2.86
2018-02-27T17:06:09.864Z,-2.78
2018-02-27T17:08:37.344Z,-2.73
2018-02-27T17:11:04.826Z,-2.39
2018-02-27T17:13:32.289Z,-2.41
2018-02-27T17:15:59.793Z,-2.74
2018-02-27T17:18:27.248Z,-2.69
2018-02-27T17:20:54.747Z,-2.74
2018-02-27T17:23:22.272Z,-2.76
2018-02-27T17:25:49.763Z,-2.64
2018-02-27T17:28:17.360Z,-2.81
2018-02-27T17:30:44.841Z,-2.85
2018-02-27T17:33:12.306Z,-2.85
2018-02-27T17:35:39.868Z,-2.79
2018-02-27T17:38:07.300Z,-2.97
2018-02-27T17:40:34.758Z,-2.84
2018-02-27T17:43:02.223Z,-2.87
2018-02-27T17:45:29.684Z,-2.99
2018-02-27T17:47:57.159Z,-3.10
2018-02-27T17:50:24.607Z,-3.21
2018-02-27T17:52:52.073Z,-2.95
2018-02-27T17:55:19.556Z,-2.42
2018-02-27T17:57:47.052Z,-2.39
2018-02-27T18:00:14.535Z,-2.46
2018-02-27T18:02:42.017Z,-2.51
2018-02-27T18:05:09.490Z,-2.58
2018-02-27T18:07:37.015Z,-2.54
2018-02-27T18:10:04.548Z,-2.57
2018-02-27T18:12:32.494Z,-2.57
2018-02-27T18:14:59.990Z,-2.76
2018-02-27T18:17:27.454Z,-2.76
2018-02-27T18:19:54.908Z,-2.74
2018-02-27T18:22:22.411Z,-2.79
2018-02-27T18:24:49.907Z,-2.84
2018-02-27T18:27:17.445Z,-2.87
2018-02-27T18:29:44.922Z,-2.99
2018-02-27T18:32:12.446Z,-2.87
2018-02-27T18:34:39.941Z,-2.85
2018-02-27T18:37:07.418Z,-2.73
2018-02-27T18:39:34.938Z,-2.71
2018-02-27T18:42:02.453Z,-2.78
2018-02-27T18:44:29.919Z,-3.02
2018-02-27T18:46:57.381Z,-2.84
2018-02-27T18:49:24.884Z,-2.73
2018-02-27T18:51:52.366Z,-2.64
2018-02-27T18:54:19.910Z,-2.61
2018-02-27T18:56:47.984Z,-2.69
2018-02-27T18:59:15.454Z,-2.74
2018-02-27T19:01:43.881Z,-2.77
2018-02-27T19:04:11.388Z,-2.77
2018-02-27T19:06:38.888Z,-2.83
2018-02-27T19:09:06.339Z,-2.87
2018-02-27T19:11:33.851Z,-2.86
2018-02-27T19:14:01.338Z,-2.89
2018-02-27T19:16:28.799Z,-2.91
2018-02-27T19:18:56.259Z,-2.92
2018-02-27T19:21:23.761Z,-2.99
2018-02-27T19:23:51.221Z,-2.99
2018-02-27T19:26:18.710Z,-3.05
2018-02-27T19:28:46.182Z,-3.10
2018-02-27T19:31:13.653Z,-3.06
2018-02-27T19:33:41.217Z,-3.14
2018-02-27T19:36:08.878Z,-3.15
2018-02-27T19:38:36.412Z,-3.14
2018-02-27T19:41:03.946Z,-3.14
2018-02-27T19:43:31.506Z,-3.16
2018-02-27T19:45:58.970Z,-3.13
2018-02-27T19:48:26.579Z,-3.16
2018-02-27T19:50:54.060Z,-3.24
2018-02-27T19:53:21.547Z,-3.22
2018-02-27T19:55:48.995Z,-3.21
2018-02-27T19:58:16.495Z,-3.18
2018-02-27T20:00:43.965Z,-3.19
2018-02-27T20:03:11.419Z,-3.21
2018-02-27T20:05:38.927Z,-3.22
2018-02-27T20:08:06.420Z,-3.20
2018-02-27T20:10:34.510Z,-3.22
2018-02-27T20:13:01.955Z,-3.23
2018-02-27T20:15:29.584Z,-3.31
2018-02-27T20:18:03.263Z,-3.29
2018-02-27T20:20:31.223Z,-3.25
2018-02-27T20:23:04.285Z,-3.29
2018-02-27T20:25:31.748Z,-3.28
2018-02-27T20:27:59.334Z,-3.39
2018-02-27T20:30:26.806Z,-3.48
2018-02-27T20:32:54.289Z,-3.45
2018-02-27T20:35:21.759Z,-3.43
2018-02-27T20:37:49.236Z,-3.41
2018-02-27T20:40:16.738Z,-3.38
2018-02-27T20:42:44.256Z,-3.34
2018-02-27T20:45:11.714Z,-3.33
2018-02-27T20:47:39.201Z,-3.35
2018-02-27T20:50:06.619Z,-3.35
2018-02-27T20:52:34.102Z,-3.39
2018-02-27T20:55:01.555Z,-3.39
2018-02-27T20:57:29.768Z,-3.37
2018-02-27T20:59:57.297Z,-3.39
2018-02-27T21:02:24.728Z,-3.44
2018-02-27T21:04:52.263Z,-3.52
2018-02-27T21:07:19.723Z,-3.58
2018-02-27T21:09:47.244Z,-3.54
2018-02-27T21:12:14.870Z,-3.60
2018-02-27T21:14:42.513Z,-3.61
2018-02-27T21:17:09.987Z,-3.62
2018-02-27T21:19:37.566Z,-3.65
2018-02-27T21:22:05.332Z,-3.72
2018-02-27T21:24:33.015Z,-3.79
2018-02-27T21:27:00.678Z,-3.81
2018-02-27T21:29:28.225Z,-3.85
2018-02-27T21:31:55.851Z,-3.92
2018-02-27T21:34:23.324Z,-3.93
2018-02-27T21:36:50.834Z,-3.95
2018-02-27T21:39:18.360Z,-3.97
2018-02-27T21:41:45.983Z,-4.00
2018-02-27T21:44:13.413Z,-4.03
2018-02-27T21:46:40.899Z,-3.99
2018-02-27T21:49:08.346Z,-3.99
2018-02-27T21:51:35.832Z,-4.04
2018-02-27T21:54:03.554Z,-4.04
2018-02-27T21:56:31.066Z,-4.04
2018-02-27T21:58:58.510Z,-4.03
2018-02-27T22:01:26.847Z,-4.02
2018-02-27T22:03:54.330Z,-3.97
2018-02-27T22:06:21.793Z,-4.00
2018-02-27T22:08:49.271Z,-4.02
2018-02-27T22:11:16.709Z,-4.05
2018-02-27T22:13:44.178Z,-4.09
2018-02-27T22:16:11.641Z,-4.12
2018-02-27T22:18:39.128Z,-4.14
2018-02-27T22:21:06.616Z,-4.16
2018-02-27T22:23:34.113Z,-4.18
2018-02-27T22:26:01.764Z,-4.19
2018-02-27T22:28:29.259Z,-4.24
2018-02-27T22:30:56.881Z,-4.25
2018-02-27T22:33:24.351Z,-4.26
2018-02-27T22:35:52.105Z,-4.28
2018-02-27T22:38:19.833Z,-4.30
2018-02-27T22:40:47.336Z,-4.36
2018-02-27T22:43:14.800Z,-4.43
2018-02-27T22:45:42.265Z,-4.50
2018-02-27T22:48:09.881Z,-4.56
2018-02-27T22:50:37.429Z,-4.64
2018-02-27T22:53:05.334Z,-4.64
2018-02-27T22:55:32.841Z,-4.60
2018-02-27T22:58:00.315Z,-4.59
2018-02-27T23:00:43.619Z,-4.62
2018-02-27T23:03:11.089Z,-4.63
2018-02-27T23:05:38.720Z,-4.69
2018-02-27T23:08:06.319Z,-4.67
2018-02-27T23:10:33.912Z,-4.73
2018-02-27T23:13:01.376Z,-4.73
2018-02-27T23:15:28.847Z,-4.74
2018-02-27T23:17:56.287Z,-4.80
2018-02-27T23:20:23.784Z,-4.84
2018-02-27T23:22:51.222Z,-4.91
2018-02-27T23:25:25.071Z,-4.95
2018-02-27T23:27:53.071Z,-4.98
2018-02-27T23:30:21.142Z,-4.99
2018-02-27T23:32:55.843Z,-4.98
2018-02-27T23:35:24.647Z,-4.97
2018-02-27T23:37:52.572Z,-4.95
2018-02-27T23:40:20.022Z,-4.93
2018-02-27T23:42:47.503Z,-4.88
2018-02-27T23:45:14.956Z,-4.85
2018-02-27T23:47:42.393Z,-4.87
2018-02-27T23:50:09.854Z,-4.99
2018-02-27T23:52:37.319Z,-5.04
2018-02-27T23:55:04.843Z,-5.09
2018-02-27T23:57:32.273Z,-5.12
2018-02-27T23:59:59.751Z,-5.19
